sensor_id;sensor_type;location;lat;lon;timestamp;temperature;humidity
49385;DHT22;36795;45.028;38.968;2023-06-24T00:01:25;22.40;68.70
49385;DHT22;36795;45.028;38.968;2023-06-24T00:04:12;22.40;68.80
49385;DHT22;36795;45.028;38.968;2023-06-24T00:07:01;22.40;68.70
49385;DHT22;36795;45.028;38.968;2023-06-24T00:09:47;22.40;69.10
49385;DHT22;36795;45.028;38.968;2023-06-24T00:12:33;22.40;69.10
49385;DHT22;36795;45.028;38.968;2023-06-24T00:15:19;22.30;69.40
49385;DHT22;36795;45.028;38.968;2023-06-24T00:18:05;22.20;69.70
49385;DHT22;36795;45.028;38.968;2023-06-24T00:20:52;22.10;70.00
49385;DHT22;36795;45.028;38.968;2023-06-24T00:23:38;21.90;70.30
49385;DHT22;36795;45.028;38.968;2023-06-24T00:26:25;21.80;70.40
49385;DHT22;36795;45.028;38.968;2023-06-24T00:29:11;21.80;70.30
49385;DHT22;36795;45.028;38.968;2023-06-24T00:31:57;21.80;70.20
49385;DHT22;36795;45.028;38.968;2023-06-24T00:34:43;21.70;70.20
49385;DHT22;36795;45.028;38.968;2023-06-24T00:37:29;21.70;70.20
49385;DHT22;36795;45.028;38.968;2023-06-24T00:40:15;21.70;70.20
49385;DHT22;36795;45.028;38.968;2023-06-24T00:43:03;21.70;70.20
49385;DHT22;36795;45.028;38.968;2023-06-24T00:45:53;21.60;70.10
49385;DHT22;36795;45.028;38.968;2023-06-24T00:48:39;21.60;70.10
49385;DHT22;36795;45.028;38.968;2023-06-24T00:51:24;21.60;70.30
49385;DHT22;36795;45.028;38.968;2023-06-24T00:54:12;21.50;70.40
49385;DHT22;36795;45.028;38.968;2023-06-24T00:56:58;21.50;70.60
49385;DHT22;36795;45.028;38.968;2023-06-24T00:59:48;21.50;70.70
49385;DHT22;36795;45.028;38.968;2023-06-24T01:02:38;21.60;70.60
49385;DHT22;36795;45.028;38.968;2023-06-24T01:05:26;21.60;70.50
49385;DHT22;36795;45.028;38.968;2023-06-24T01:08:14;21.60;70.40
49385;DHT22;36795;45.028;38.968;2023-06-24T01:11:04;21.60;70.30
49385;DHT22;36795;45.028;38.968;2023-06-24T01:13:50;21.60;70.40
49385;DHT22;36795;45.028;38.968;2023-06-24T01:16:50;21.60;70.40
49385;DHT22;36795;45.028;38.968;2023-06-24T01:29:52;21.40;70.50
49385;DHT22;36795;45.028;38.968;2023-06-24T01:32:46;21.40;70.70
49385;DHT22;36795;45.028;38.968;2023-06-24T01:35:35;21.40;70.80
49385;DHT22;36795;45.028;38.968;2023-06-24T01:38:31;21.40;70.60
49385;DHT22;36795;45.028;38.968;2023-06-24T01:41:25;21.40;70.70
49385;DHT22;36795;45.028;38.968;2023-06-24T01:44:14;21.40;70.70
49385;DHT22;36795;45.028;38.968;2023-06-24T01:47:04;21.40;70.60
49385;DHT22;36795;45.028;38.968;2023-06-24T01:49:54;21.40;70.50
49385;DHT22;36795;45.028;38.968;2023-06-24T01:52:45;21.40;70.50
49385;DHT22;36795;45.028;38.968;2023-06-24T01:55:32;21.40;70.50
49385;DHT22;36795;45.028;38.968;2023-06-24T01:58:20;21.40;70.50
49385;DHT22;36795;45.028;38.968;2023-06-24T02:01:07;21.50;70.50
49385;DHT22;36795;45.028;38.968;2023-06-24T02:03:55;21.40;70.50
49385;DHT22;36795;45.028;38.968;2023-06-24T02:06:41;21.40;70.70
49385;DHT22;36795;45.028;38.968;2023-06-24T02:09:29;21.30;70.80
49385;DHT22;36795;45.028;38.968;2023-06-24T02:12:17;21.40;70.70
49385;DHT22;36795;45.028;38.968;2023-06-24T02:15:04;21.40;70.70
49385;DHT22;36795;45.028;38.968;2023-06-24T02:17:53;21.40;70.70
49385;DHT22;36795;45.028;38.968;2023-06-24T02:20:43;21.40;70.80
49385;DHT22;36795;45.028;38.968;2023-06-24T02:23:31;21.40;70.80
49385;DHT22;36795;45.028;38.968;2023-06-24T02:26:17;21.40;70.70
49385;DHT22;36795;45.028;38.968;2023-06-24T02:29:04;21.50;70.70
49385;DHT22;36795;45.028;38.968;2023-06-24T02:31:50;21.50;70.60
49385;DHT22;36795;45.028;38.968;2023-06-24T02:34:39;21.60;70.50
49385;DHT22;36795;45.028;38.968;2023-06-24T02:37:25;21.60;70.40
49385;DHT22;36795;45.028;38.968;2023-06-24T02:40:12;21.70;70.30
49385;DHT22;36795;45.028;38.968;2023-06-24T02:42:58;21.70;70.10
49385;DHT22;36795;45.028;38.968;2023-06-24T02:45:47;21.70;69.80
49385;DHT22;36795;45.028;38.968;2023-06-24T02:48:35;21.80;69.50
49385;DHT22;36795;45.028;38.968;2023-06-24T02:51:22;21.90;69.10
49385;DHT22;36795;45.028;38.968;2023-06-24T02:54:08;21.90;68.60
49385;DHT22;36795;45.028;38.968;2023-06-24T02:56:58;21.90;68.20
49385;DHT22;36795;45.028;38.968;2023-06-24T02:59:45;22.00;67.90
49385;DHT22;36795;45.028;38.968;2023-06-24T03:02:33;22.00;67.70
49385;DHT22;36795;45.028;38.968;2023-06-24T03:05:18;22.00;67.30
49385;DHT22;36795;45.028;38.968;2023-06-24T03:08:05;22.00;66.90
49385;DHT22;36795;45.028;38.968;2023-06-24T03:10:54;22.10;66.80
49385;DHT22;36795;45.028;38.968;2023-06-24T03:13:42;22.00;66.80
49385;DHT22;36795;45.028;38.968;2023-06-24T03:16:29;22.10;66.70
49385;DHT22;36795;45.028;38.968;2023-06-24T03:19:16;22.10;66.20
49385;DHT22;36795;45.028;38.968;2023-06-24T03:22:04;22.20;66.10
49385;DHT22;36795;45.028;38.968;2023-06-24T03:24:52;22.20;66.00
49385;DHT22;36795;45.028;38.968;2023-06-24T03:27:38;22.20;65.90
49385;DHT22;36795;45.028;38.968;2023-06-24T03:30:24;22.20;65.70
49385;DHT22;36795;45.028;38.968;2023-06-24T03:33:10;22.30;65.40
49385;DHT22;36795;45.028;38.968;2023-06-24T03:35:57;22.30;65.30
49385;DHT22;36795;45.028;38.968;2023-06-24T03:38:43;22.40;65.40
49385;DHT22;36795;45.028;38.968;2023-06-24T03:41:29;22.40;65.30
49385;DHT22;36795;45.028;38.968;2023-06-24T03:44:15;22.60;65.30
49385;DHT22;36795;45.028;38.968;2023-06-24T03:47:02;22.70;65.10
49385;DHT22;36795;45.028;38.968;2023-06-24T03:49:47;22.70;65.10
49385;DHT22;36795;45.028;38.968;2023-06-24T03:52:34;22.60;65.10
49385;DHT22;36795;45.028;38.968;2023-06-24T03:55:20;22.60;65.20
49385;DHT22;36795;45.028;38.968;2023-06-24T03:58:06;22.70;64.90
49385;DHT22;36795;45.028;38.968;2023-06-24T04:00:53;22.90;64.70
49385;DHT22;36795;45.028;38.968;2023-06-24T04:03:43;23.00;64.30
49385;DHT22;36795;45.028;38.968;2023-06-24T04:06:29;23.10;64.10
49385;DHT22;36795;45.028;38.968;2023-06-24T04:09:15;23.30;63.90
49385;DHT22;36795;45.028;38.968;2023-06-24T04:12:03;23.40;63.60
49385;DHT22;36795;45.028;38.968;2023-06-24T04:14:51;23.50;63.40
49385;DHT22;36795;45.028;38.968;2023-06-24T04:17:36;23.60;63.10
49385;DHT22;36795;45.028;38.968;2023-06-24T04:20:23;23.80;62.70
49385;DHT22;36795;45.028;38.968;2023-06-24T04:23:09;23.90;62.10
49385;DHT22;36795;45.028;38.968;2023-06-24T04:25:56;24.00;61.40
49385;DHT22;36795;45.028;38.968;2023-06-24T04:28:42;24.10;61.00
49385;DHT22;36795;45.028;38.968;2023-06-24T04:31:29;24.20;61.20
49385;DHT22;36795;45.028;38.968;2023-06-24T04:34:15;24.20;61.60
49385;DHT22;36795;45.028;38.968;2023-06-24T04:37:02;24.30;61.60
49385;DHT22;36795;45.028;38.968;2023-06-24T04:39:48;24.30;61.30
49385;DHT22;36795;45.028;38.968;2023-06-24T04:42:34;24.40;61.30
49385;DHT22;36795;45.028;38.968;2023-06-24T04:45:20;24.40;61.90
49385;DHT22;36795;45.028;38.968;2023-06-24T04:48:07;24.40;62.10
49385;DHT22;36795;45.028;38.968;2023-06-24T04:50:53;24.40;62.00
49385;DHT22;36795;45.028;38.968;2023-06-24T04:53:43;24.50;61.40
49385;DHT22;36795;45.028;38.968;2023-06-24T04:56:29;24.50;61.30
49385;DHT22;36795;45.028;38.968;2023-06-24T04:59:16;24.50;61.10
49385;DHT22;36795;45.028;38.968;2023-06-24T05:02:02;24.60;60.50
49385;DHT22;36795;45.028;38.968;2023-06-24T05:04:49;24.80;60.20
49385;DHT22;36795;45.028;38.968;2023-06-24T05:07:35;24.90;59.80
49385;DHT22;36795;45.028;38.968;2023-06-24T05:10:21;25.00;59.20
49385;DHT22;36795;45.028;38.968;2023-06-24T05:13:07;25.00;58.70
49385;DHT22;36795;45.028;38.968;2023-06-24T05:15:53;25.10;58.40
49385;DHT22;36795;45.028;38.968;2023-06-24T05:18:39;25.10;58.30
49385;DHT22;36795;45.028;38.968;2023-06-24T05:21:25;25.20;57.50
49385;DHT22;36795;45.028;38.968;2023-06-24T05:24:11;25.30;57.60
49385;DHT22;36795;45.028;38.968;2023-06-24T05:27:04;25.40;57.80
49385;DHT22;36795;45.028;38.968;2023-06-24T05:29:51;25.40;57.60
49385;DHT22;36795;45.028;38.968;2023-06-24T05:32:37;25.30;57.70
49385;DHT22;36795;45.028;38.968;2023-06-24T05:35:23;25.50;57.90
49385;DHT22;36795;45.028;38.968;2023-06-24T05:38:09;25.60;58.40
49385;DHT22;36795;45.028;38.968;2023-06-24T05:40:55;25.70;57.70
49385;DHT22;36795;45.028;38.968;2023-06-24T05:43:43;25.70;57.50
49385;DHT22;36795;45.028;38.968;2023-06-24T05:46:29;25.80;57.60
49385;DHT22;36795;45.028;38.968;2023-06-24T05:49:15;25.90;57.60
49385;DHT22;36795;45.028;38.968;2023-06-24T05:52:01;25.90;57.60
49385;DHT22;36795;45.028;38.968;2023-06-24T05:54:47;26.00;57.60
49385;DHT22;36795;45.028;38.968;2023-06-24T05:57:32;26.10;57.40
49385;DHT22;36795;45.028;38.968;2023-06-24T06:00:19;26.20;57.40
49385;DHT22;36795;45.028;38.968;2023-06-24T06:03:06;26.40;57.40
49385;DHT22;36795;45.028;38.968;2023-06-24T06:05:51;26.50;57.40
49385;DHT22;36795;45.028;38.968;2023-06-24T06:08:37;26.60;57.90
49385;DHT22;36795;45.028;38.968;2023-06-24T06:11:23;26.70;58.60
49385;DHT22;36795;45.028;38.968;2023-06-24T06:14:09;26.70;59.10
49385;DHT22;36795;45.028;38.968;2023-06-24T06:16:55;26.90;59.10
49385;DHT22;36795;45.028;38.968;2023-06-24T06:19:41;26.90;59.00
49385;DHT22;36795;45.028;38.968;2023-06-24T06:22:27;27.10;58.90
49385;DHT22;36795;45.028;38.968;2023-06-24T06:25:13;27.10;58.90
49385;DHT22;36795;45.028;38.968;2023-06-24T06:27:59;27.20;58.80
49385;DHT22;36795;45.028;38.968;2023-06-24T06:30:46;27.30;58.80
49385;DHT22;36795;45.028;38.968;2023-06-24T06:33:31;27.30;59.20
49385;DHT22;36795;45.028;38.968;2023-06-24T06:36:18;27.50;58.80
49385;DHT22;36795;45.028;38.968;2023-06-24T06:39:03;27.60;58.60
49385;DHT22;36795;45.028;38.968;2023-06-24T06:41:50;27.60;58.50
49385;DHT22;36795;45.028;38.968;2023-06-24T06:44:35;27.50;58.20
49385;DHT22;36795;45.028;38.968;2023-06-24T06:47:22;27.50;58.20
49385;DHT22;36795;45.028;38.968;2023-06-24T06:50:08;27.70;58.00
49385;DHT22;36795;45.028;38.968;2023-06-24T06:52:54;27.80;57.50
49385;DHT22;36795;45.028;38.968;2023-06-24T06:55:40;27.90;57.20
49385;DHT22;36795;45.028;38.968;2023-06-24T06:58:28;28.00;57.00
49385;DHT22;36795;45.028;38.968;2023-06-24T07:01:14;28.20;57.00
49385;DHT22;36795;45.028;38.968;2023-06-24T07:04:00;28.40;56.70
49385;DHT22;36795;45.028;38.968;2023-06-24T07:06:45;28.40;56.30
49385;DHT22;36795;45.028;38.968;2023-06-24T07:09:32;28.50;56.30
49385;DHT22;36795;45.028;38.968;2023-06-24T07:12:17;28.50;55.60
49385;DHT22;36795;45.028;38.968;2023-06-24T07:15:04;28.50;54.90
49385;DHT22;36795;45.028;38.968;2023-06-24T07:17:50;28.50;55.20
49385;DHT22;36795;45.028;38.968;2023-06-24T07:20:36;28.60;55.20
49385;DHT22;36795;45.028;38.968;2023-06-24T07:23:22;28.70;54.80
49385;DHT22;36795;45.028;38.968;2023-06-24T07:26:08;28.70;54.30
49385;DHT22;36795;45.028;38.968;2023-06-24T07:28:56;28.80;54.10
49385;DHT22;36795;45.028;38.968;2023-06-24T07:31:44;28.80;53.00
49385;DHT22;36795;45.028;38.968;2023-06-24T07:34:30;28.80;53.30
49385;DHT22;36795;45.028;38.968;2023-06-24T07:37:16;28.90;53.10
49385;DHT22;36795;45.028;38.968;2023-06-24T07:40:02;29.00;51.60
49385;DHT22;36795;45.028;38.968;2023-06-24T07:42:50;29.10;52.40
49385;DHT22;36795;45.028;38.968;2023-06-24T07:45:36;29.00;52.30
49385;DHT22;36795;45.028;38.968;2023-06-24T07:48:22;29.10;52.40
49385;DHT22;36795;45.028;38.968;2023-06-24T07:51:08;29.20;52.30
49385;DHT22;36795;45.028;38.968;2023-06-24T07:53:55;29.40;52.40
49385;DHT22;36795;45.028;38.968;2023-06-24T07:56:40;29.50;50.90
49385;DHT22;36795;45.028;38.968;2023-06-24T07:59:28;29.60;49.10
49385;DHT22;36795;45.028;38.968;2023-06-24T08:02:14;29.70;48.90
49385;DHT22;36795;45.028;38.968;2023-06-24T08:05:00;29.60;47.50
49385;DHT22;36795;45.028;38.968;2023-06-24T08:07:46;29.60;47.70
49385;DHT22;36795;45.028;38.968;2023-06-24T08:10:33;29.60;47.90
49385;DHT22;36795;45.028;38.968;2023-06-24T08:13:19;29.70;48.20
49385;DHT22;36795;45.028;38.968;2023-06-24T08:16:05;29.80;47.70
49385;DHT22;36795;45.028;38.968;2023-06-24T08:18:51;29.90;46.20
49385;DHT22;36795;45.028;38.968;2023-06-24T08:21:38;30.00;46.10
49385;DHT22;36795;45.028;38.968;2023-06-24T08:24:23;30.20;46.30
49385;DHT22;36795;45.028;38.968;2023-06-24T08:27:10;30.30;44.90
49385;DHT22;36795;45.028;38.968;2023-06-24T08:29:55;30.30;44.70
49385;DHT22;36795;45.028;38.968;2023-06-24T08:32:42;30.40;44.00
49385;DHT22;36795;45.028;38.968;2023-06-24T08:35:28;30.50;44.40
49385;DHT22;36795;45.028;38.968;2023-06-24T08:38:14;30.50;44.70
49385;DHT22;36795;45.028;38.968;2023-06-24T08:41:00;30.50;45.00
49385;DHT22;36795;45.028;38.968;2023-06-24T08:43:46;30.60;43.30
49385;DHT22;36795;45.028;38.968;2023-06-24T08:46:32;30.70;42.70
49385;DHT22;36795;45.028;38.968;2023-06-24T08:49:26;30.90;42.00
49385;DHT22;36795;45.028;38.968;2023-06-24T08:52:15;30.90;39.60
49385;DHT22;36795;45.028;38.968;2023-06-24T08:55:02;31.00;38.40
49385;DHT22;36795;45.028;38.968;2023-06-24T08:57:48;31.20;37.90
49385;DHT22;36795;45.028;38.968;2023-06-24T09:00:34;31.30;36.10
49385;DHT22;36795;45.028;38.968;2023-06-24T09:03:21;31.30;36.20
49385;DHT22;36795;45.028;38.968;2023-06-24T09:06:07;31.30;36.10
49385;DHT22;36795;45.028;38.968;2023-06-24T09:08:56;31.40;36.70
49385;DHT22;36795;45.028;38.968;2023-06-24T09:11:55;31.40;36.20
49385;DHT22;36795;45.028;38.968;2023-06-24T09:14:41;31.40;36.50
49385;DHT22;36795;45.028;38.968;2023-06-24T09:17:28;31.40;36.30
49385;DHT22;36795;45.028;38.968;2023-06-24T09:20:14;31.40;35.80
49385;DHT22;36795;45.028;38.968;2023-06-24T09:23:02;31.30;36.20
49385;DHT22;36795;45.028;38.968;2023-06-24T09:25:58;31.40;35.20
49385;DHT22;36795;45.028;38.968;2023-06-24T09:28:48;31.60;35.30
49385;DHT22;36795;45.028;38.968;2023-06-24T09:31:48;31.70;35.90
49385;DHT22;36795;45.028;38.968;2023-06-24T09:34:35;31.80;35.90
49385;DHT22;36795;45.028;38.968;2023-06-24T09:37:21;31.60;34.80
49385;DHT22;36795;45.028;38.968;2023-06-24T09:40:12;31.40;35.70
49385;DHT22;36795;45.028;38.968;2023-06-24T09:42:59;31.30;35.50
49385;DHT22;36795;45.028;38.968;2023-06-24T09:45:49;31.30;35.20
49385;DHT22;36795;45.028;38.968;2023-06-24T09:48:35;31.30;35.10
49385;DHT22;36795;45.028;38.968;2023-06-24T09:51:22;31.30;34.10
49385;DHT22;36795;45.028;38.968;2023-06-24T09:54:10;31.40;34.50
49385;DHT22;36795;45.028;38.968;2023-06-24T09:57:01;31.50;34.80
49385;DHT22;36795;45.028;38.968;2023-06-24T09:59:48;31.60;34.90
49385;DHT22;36795;45.028;38.968;2023-06-24T10:02:35;31.70;35.60
49385;DHT22;36795;45.028;38.968;2023-06-24T10:05:21;31.70;35.90
49385;DHT22;36795;45.028;38.968;2023-06-24T10:08:09;31.80;36.50
49385;DHT22;36795;45.028;38.968;2023-06-24T10:10:56;31.80;36.80
49385;DHT22;36795;45.028;38.968;2023-06-24T10:13:42;31.90;36.10
49385;DHT22;36795;45.028;38.968;2023-06-24T10:16:28;31.90;35.40
49385;DHT22;36795;45.028;38.968;2023-06-24T10:19:19;32.00;36.00
49385;DHT22;36795;45.028;38.968;2023-06-24T10:22:10;32.00;36.80
49385;DHT22;36795;45.028;38.968;2023-06-24T10:24:59;32.00;37.00
49385;DHT22;36795;45.028;38.968;2023-06-24T10:27:53;32.00;36.90
49385;DHT22;36795;45.028;38.968;2023-06-24T10:30:39;32.00;36.20
49385;DHT22;36795;45.028;38.968;2023-06-24T10:33:25;32.00;34.90
49385;DHT22;36795;45.028;38.968;2023-06-24T10:36:31;32.00;35.70
49385;DHT22;36795;45.028;38.968;2023-06-24T10:42:42;33.10;34.00
49385;DHT22;36795;45.028;38.968;2023-06-24T10:45:28;33.40;33.20
49385;DHT22;36795;45.028;38.968;2023-06-24T10:48:14;33.40;34.30
49385;DHT22;36795;45.028;38.968;2023-06-24T10:51:01;33.40;33.70
49385;DHT22;36795;45.028;38.968;2023-06-24T10:53:47;33.30;33.70
49385;DHT22;36795;45.028;38.968;2023-06-24T10:56:33;33.00;33.70
49385;DHT22;36795;45.028;38.968;2023-06-24T10:59:19;32.80;33.00
49385;DHT22;36795;45.028;38.968;2023-06-24T11:02:05;32.60;32.60
49385;DHT22;36795;45.028;38.968;2023-06-24T11:04:59;32.70;32.70
49385;DHT22;36795;45.028;38.968;2023-06-24T11:07:45;32.70;31.90
49385;DHT22;36795;45.028;38.968;2023-06-24T11:10:32;32.70;31.80
49385;DHT22;36795;45.028;38.968;2023-06-24T11:13:20;32.50;31.40
49385;DHT22;36795;45.028;38.968;2023-06-24T11:16:06;32.40;31.50
49385;DHT22;36795;45.028;38.968;2023-06-24T11:18:53;32.30;31.50
49385;DHT22;36795;45.028;38.968;2023-06-24T11:21:38;32.30;31.60
49385;DHT22;36795;45.028;38.968;2023-06-24T11:24:25;32.40;30.70
49385;DHT22;36795;45.028;38.968;2023-06-24T11:27:10;32.50;30.80
49385;DHT22;36795;45.028;38.968;2023-06-24T11:30:00;32.60;31.20
49385;DHT22;36795;45.028;38.968;2023-06-24T11:32:50;32.70;30.30
49385;DHT22;36795;45.028;38.968;2023-06-24T11:35:37;32.70;30.00
49385;DHT22;36795;45.028;38.968;2023-06-24T11:38:23;32.70;30.10
49385;DHT22;36795;45.028;38.968;2023-06-24T11:41:10;32.80;30.20
49385;DHT22;36795;45.028;38.968;2023-06-24T11:43:59;32.90;30.30
49385;DHT22;36795;45.028;38.968;2023-06-24T11:46:46;33.00;30.00
49385;DHT22;36795;45.028;38.968;2023-06-24T11:49:32;33.00;29.80
49385;DHT22;36795;45.028;38.968;2023-06-24T11:52:41;33.00;29.70
49385;DHT22;36795;45.028;38.968;2023-06-24T11:55:28;33.10;29.60
49385;DHT22;36795;45.028;38.968;2023-06-24T11:58:19;33.20;29.90
49385;DHT22;36795;45.028;38.968;2023-06-24T12:01:08;33.20;29.80
49385;DHT22;36795;45.028;38.968;2023-06-24T12:03:54;33.30;29.90
49385;DHT22;36795;45.028;38.968;2023-06-24T12:06:43;33.30;30.00
49385;DHT22;36795;45.028;38.968;2023-06-24T12:09:30;33.30;29.60
49385;DHT22;36795;45.028;38.968;2023-06-24T12:12:16;33.30;29.50
49385;DHT22;36795;45.028;38.968;2023-06-24T12:15:02;33.50;29.40
49385;DHT22;36795;45.028;38.968;2023-06-24T12:17:48;34.20;29.30
49385;DHT22;36795;45.028;38.968;2023-06-24T12:20:34;35.10;28.90
49385;DHT22;36795;45.028;38.968;2023-06-24T12:23:21;36.00;28.40
49385;DHT22;36795;45.028;38.968;2023-06-24T12:26:07;36.50;28.00
49385;DHT22;36795;45.028;38.968;2023-06-24T12:28:56;36.70;28.50
49385;DHT22;36795;45.028;38.968;2023-06-24T12:31:43;36.80;28.40
49385;DHT22;36795;45.028;38.968;2023-06-24T12:34:29;37.20;27.80
49385;DHT22;36795;45.028;38.968;2023-06-24T12:37:15;37.60;27.60
49385;DHT22;36795;45.028;38.968;2023-06-24T12:40:01;38.40;27.40
49385;DHT22;36795;45.028;38.968;2023-06-24T12:42:48;39.40;25.90
49385;DHT22;36795;45.028;38.968;2023-06-24T12:45:33;39.70;25.60
49385;DHT22;36795;45.028;38.968;2023-06-24T12:48:19;39.30;25.90
49385;DHT22;36795;45.028;38.968;2023-06-24T12:51:05;39.20;26.50
49385;DHT22;36795;45.028;38.968;2023-06-24T12:53:52;38.50;27.10
49385;DHT22;36795;45.028;38.968;2023-06-24T12:56:37;37.70;27.30
49385;DHT22;36795;45.028;38.968;2023-06-24T12:59:24;37.70;27.80
49385;DHT22;36795;45.028;38.968;2023-06-24T13:02:09;38.20;27.80
49385;DHT22;36795;45.028;38.968;2023-06-24T13:04:56;39.20;27.30
49385;DHT22;36795;45.028;38.968;2023-06-24T13:07:42;40.00;26.60
49385;DHT22;36795;45.028;38.968;2023-06-24T13:10:28;40.70;26.30
49385;DHT22;36795;45.028;38.968;2023-06-24T13:13:14;41.00;26.00
49385;DHT22;36795;45.028;38.968;2023-06-24T13:16:00;40.60;26.40
49385;DHT22;36795;45.028;38.968;2023-06-24T13:18:46;40.20;26.50
49385;DHT22;36795;45.028;38.968;2023-06-24T13:21:33;40.00;26.90
49385;DHT22;36795;45.028;38.968;2023-06-24T13:24:18;39.60;26.90
49385;DHT22;36795;45.028;38.968;2023-06-24T13:27:05;39.70;26.80
49385;DHT22;36795;45.028;38.968;2023-06-24T13:29:51;40.40;26.90
49385;DHT22;36795;45.028;38.968;2023-06-24T13:32:37;41.40;26.40
49385;DHT22;36795;45.028;38.968;2023-06-24T13:35:23;41.90;25.80
49385;DHT22;36795;45.028;38.968;2023-06-24T13:38:09;42.10;25.00
49385;DHT22;36795;45.028;38.968;2023-06-24T13:40:57;41.90;25.10
49385;DHT22;36795;45.028;38.968;2023-06-24T13:43:43;41.70;25.30
49385;DHT22;36795;45.028;38.968;2023-06-24T13:46:30;41.40;25.80
49385;DHT22;36795;45.028;38.968;2023-06-24T13:49:16;41.10;26.00
49385;DHT22;36795;45.028;38.968;2023-06-24T13:52:02;40.60;26.00
49385;DHT22;36795;45.028;38.968;2023-06-24T13:54:49;40.10;26.50
49385;DHT22;36795;45.028;38.968;2023-06-24T13:57:35;39.40;26.80
49385;DHT22;36795;45.028;38.968;2023-06-24T14:00:22;38.70;27.60
49385;DHT22;36795;45.028;38.968;2023-06-24T14:03:08;37.90;27.70
49385;DHT22;36795;45.028;38.968;2023-06-24T14:05:54;37.20;27.40
49385;DHT22;36795;45.028;38.968;2023-06-24T14:08:41;36.50;27.60
49385;DHT22;36795;45.028;38.968;2023-06-24T14:11:26;35.80;28.40
49385;DHT22;36795;45.028;38.968;2023-06-24T14:14:13;35.20;29.50
49385;DHT22;36795;45.028;38.968;2023-06-24T14:16:58;34.80;30.00
49385;DHT22;36795;45.028;38.968;2023-06-24T14:19:45;34.60;30.60
49385;DHT22;36795;45.028;38.968;2023-06-24T14:22:32;34.30;31.00
49385;DHT22;36795;45.028;38.968;2023-06-24T14:25:18;34.00;31.80
49385;DHT22;36795;45.028;38.968;2023-06-24T14:28:05;33.80;32.40
49385;DHT22;36795;45.028;38.968;2023-06-24T14:30:51;33.60;33.00
49385;DHT22;36795;45.028;38.968;2023-06-24T14:33:37;33.50;33.40
49385;DHT22;36795;45.028;38.968;2023-06-24T14:36:23;33.40;33.60
49385;DHT22;36795;45.028;38.968;2023-06-24T14:39:12;33.20;33.90
49385;DHT22;36795;45.028;38.968;2023-06-24T14:41:58;33.20;34.10
49385;DHT22;36795;45.028;38.968;2023-06-24T14:44:44;33.10;34.00
49385;DHT22;36795;45.028;38.968;2023-06-24T14:47:30;33.00;33.70
49385;DHT22;36795;45.028;38.968;2023-06-24T14:50:16;32.80;33.80
49385;DHT22;36795;45.028;38.968;2023-06-24T14:53:03;32.70;34.10
49385;DHT22;36795;45.028;38.968;2023-06-24T14:55:49;32.60;34.50
49385;DHT22;36795;45.028;38.968;2023-06-24T14:58:35;32.60;34.90
49385;DHT22;36795;45.028;38.968;2023-06-24T15:01:21;32.60;34.60
49385;DHT22;36795;45.028;38.968;2023-06-24T15:04:07;32.60;34.50
49385;DHT22;36795;45.028;38.968;2023-06-24T15:06:53;32.50;34.60
49385;DHT22;36795;45.028;38.968;2023-06-24T15:09:42;32.40;34.30
49385;DHT22;36795;45.028;38.968;2023-06-24T15:12:28;32.40;34.00
49385;DHT22;36795;45.028;38.968;2023-06-24T15:15:15;32.30;34.10
49385;DHT22;36795;45.028;38.968;2023-06-24T15:18:01;32.20;34.10
49385;DHT22;36795;45.028;38.968;2023-06-24T15:20:47;32.10;34.00
49385;DHT22;36795;45.028;38.968;2023-06-24T15:23:33;32.10;34.00
49385;DHT22;36795;45.028;38.968;2023-06-24T15:26:19;31.90;34.30
49385;DHT22;36795;45.028;38.968;2023-06-24T15:29:05;31.80;34.20
49385;DHT22;36795;45.028;38.968;2023-06-24T15:31:51;31.70;34.40
49385;DHT22;36795;45.028;38.968;2023-06-24T15:34:37;31.70;34.50
49385;DHT22;36795;45.028;38.968;2023-06-24T15:37:23;31.50;34.60
49385;DHT22;36795;45.028;38.968;2023-06-24T15:40:09;31.50;35.20
49385;DHT22;36795;45.028;38.968;2023-06-24T15:42:55;31.40;34.80
49385;DHT22;36795;45.028;38.968;2023-06-24T15:45:41;31.30;34.70
49385;DHT22;36795;45.028;38.968;2023-06-24T15:48:27;31.30;35.70
49385;DHT22;36795;45.028;38.968;2023-06-24T15:51:13;31.20;35.50
49385;DHT22;36795;45.028;38.968;2023-06-24T15:53:59;31.20;35.70
49385;DHT22;36795;45.028;38.968;2023-06-24T15:56:45;31.10;35.90
49385;DHT22;36795;45.028;38.968;2023-06-24T15:59:31;31.10;36.20
49385;DHT22;36795;45.028;38.968;2023-06-24T16:02:17;31.00;36.30
49385;DHT22;36795;45.028;38.968;2023-06-24T16:05:05;30.90;35.90
49385;DHT22;36795;45.028;38.968;2023-06-24T16:07:51;30.90;36.10
49385;DHT22;36795;45.028;38.968;2023-06-24T16:10:38;30.80;36.40
49385;DHT22;36795;45.028;38.968;2023-06-24T16:13:24;30.80;36.50
49385;DHT22;36795;45.028;38.968;2023-06-24T16:16:10;30.70;36.70
49385;DHT22;36795;45.028;38.968;2023-06-24T16:18:56;30.60;37.00
49385;DHT22;36795;45.028;38.968;2023-06-24T16:21:42;30.50;36.70
49385;DHT22;36795;45.028;38.968;2023-06-24T16:24:28;30.40;36.90
49385;DHT22;36795;45.028;38.968;2023-06-24T16:27:15;30.30;36.50
49385;DHT22;36795;45.028;38.968;2023-06-24T16:30:00;30.30;36.40
49385;DHT22;36795;45.028;38.968;2023-06-24T16:32:49;30.20;36.40
49385;DHT22;36795;45.028;38.968;2023-06-24T16:35:35;30.20;36.70
49385;DHT22;36795;45.028;38.968;2023-06-24T16:38:21;30.10;36.80
49385;DHT22;36795;45.028;38.968;2023-06-24T16:41:07;30.10;36.80
49385;DHT22;36795;45.028;38.968;2023-06-24T16:43:53;30.00;36.90
49385;DHT22;36795;45.028;38.968;2023-06-24T16:46:39;29.90;37.30
49385;DHT22;36795;45.028;38.968;2023-06-24T16:49:25;29.80;37.50
49385;DHT22;36795;45.028;38.968;2023-06-24T16:52:11;29.70;38.10
49385;DHT22;36795;45.028;38.968;2023-06-24T16:54:57;29.70;37.70
49385;DHT22;36795;45.028;38.968;2023-06-24T16:57:45;29.60;38.00
49385;DHT22;36795;45.028;38.968;2023-06-24T17:00:31;29.50;38.20
49385;DHT22;36795;45.028;38.968;2023-06-24T17:03:16;29.40;38.50
49385;DHT22;36795;45.028;38.968;2023-06-24T17:06:05;29.30;38.40
49385;DHT22;36795;45.028;38.968;2023-06-24T17:08:51;29.30;38.60
49385;DHT22;36795;45.028;38.968;2023-06-24T17:11:38;29.20;38.90
49385;DHT22;36795;45.028;38.968;2023-06-24T17:14:24;29.10;38.90
49385;DHT22;36795;45.028;38.968;2023-06-24T17:17:10;29.10;39.00
49385;DHT22;36795;45.028;38.968;2023-06-24T17:19:56;29.00;39.30
49385;DHT22;36795;45.028;38.968;2023-06-24T17:22:42;28.90;39.40
49385;DHT22;36795;45.028;38.968;2023-06-24T17:25:28;28.90;39.70
49385;DHT22;36795;45.028;38.968;2023-06-24T17:28:15;28.90;39.80
49385;DHT22;36795;45.028;38.968;2023-06-24T17:31:00;28.80;39.70